MST,Max TemperatureF,Mean TemperatureF,Min TemperatureF,Max Dew PointF,MeanDew PointF,Min DewpointF,Max Humidity, Mean Humidity, Min Humidity, Max Sea Level PressureIn, Mean Sea Level PressureIn, Min Sea Level PressureIn, Max VisibilityMiles, Mean VisibilityMiles, Min VisibilityMiles, Max Wind SpeedMPH, Mean Wind SpeedMPH, Max Gust SpeedMPH,PrecipitationIn, CloudCover, Events, WindDirDegrees
2011-12-1,53,43,33,34,23,15,93,53,24,30.08,29.87,29.65,10,10,10,29,9,41,0.08,4,Rain,109
2011-12-2,37,34,30,29,25,18,89,69,47,30.03,29.89,29.76,10,9,2,13,7,31,0.00,8,Snow,208
2011-12-3,35,32,28,28,27,18,93,84,64,30.08,29.91,29.75,10,7,0,12,5,,0.02,8,Fog-Snow,231
2011-12-4,30,24,19,21,18,11,89,75,45,30.10,30.01,29.94,10,6,2,12,4,,0.00,8,Snow,295
2011-12-5,25,14,3,19,14,-1,93,84,71,30.39,30.15,30.01,10,5,0,9,2,,0.03,7,Fog-Snow,211
2011-12-6,30,14,-2,8,3,-6,83,63,40,30.47,30.41,30.35,10,10,10,17,7,26,0.00,0,,17
2011-12-7,35,21,7,17,9,2,84,66,40,30.51,30.38,30.26,10,10,10,12,3,,0.00,0,,69
2011-12-8,37,24,10,18,13,6,84,68,41,30.30,30.24,30.15,10,10,10,8,5,,0.00,0,,77
2011-12-9,39,24,10,19,12,6,88,72,39,30.48,30.38,30.27,10,10,10,7,4,,0.00,0,,93
2011-12-10,42,26,10,23,15,6,85,72,45,30.50,30.36,30.22,10,10,10,10,4,,0.00,0,,91
2011-12-11,45,28,12,20,15,8,84,66,36,30.22,30.11,29.99,10,10,10,13,4,,0.00,0,,95
2011-12-12,45,32,19,34,26,14,93,71,37,30.05,29.96,29.89,10,10,8,24,7,39,0.06,6,Rain,138
2011-12-13,48,40,32,35,33,30,96,88,56,29.98,29.89,29.78,10,8,1,14,3,20,0.08,8,Rain-Snow,111
2011-12-14,35,30,23,34,29,20,100,89,76,30.23,30.02,29.86,10,8,1,12,3,,0.04,7,Snow,293
2011-12-15,39,27,15,25,19,12,88,77,53,30.32,30.26,30.20,10,10,10,6,3,,0.00,1,,89
2011-12-16,41,28,14,24,18,10,88,74,47,30.51,30.41,30.31,10,10,9,7,2,,0.00,0,,70
2011-12-17,46,29,12,22,17,8,88,69,35,30.56,30.44,30.29,10,10,10,10,3,,0.00,0,,120
2011-12-18,46,32,19,25,22,16,85,68,34,30.29,30.07,29.84,10,10,10,15,5,,0.00,1,,67
2011-12-19,39,32,26,30,27,23,100,84,60,30.01,29.89,29.75,10,7,2,9,2,,0.00,4,Snow,82
2011-12-20,37,32,26,34,29,24,100,93,79,30.04,29.99,29.93,10,4,0,12,2,,0.01,7,Fog-Snow,125
2011-12-21,37,30,23,27,23,14,100,80,57,29.98,29.93,29.83,10,9,2,10,2,21,0.00,6,,341
2011-12-22,30,23,16,19,15,8,93,77,49,30.33,30.09,29.95,10,6,1,18,7,24,0.00,6,Snow,310
2011-12-23,37,22,7,15,9,2,84,69,36,30.54,30.44,30.34,10,10,8,14,5,,0.00,0,,81
2011-12-24,39,24,9,16,11,5,84,67,34,30.59,30.52,30.43,10,10,10,7,3,,0.00,0,,78
2011-12-25,39,24,8,18,12,4,84,68,39,30.63,30.49,30.32,10,10,10,8,3,,0.00,0,,87
2011-12-26,44,29,14,16,14,10,84,64,32,30.42,30.31,30.22,10,10,9,14,7,,0.00,0,,50
2011-12-27,46,29,12,16,12,7,84,62,26,30.42,30.35,30.22,10,10,10,13,5,,0.00,0,,50
2011-12-28,48,31,14,17,13,9,81,56,24,30.48,30.36,30.27,10,10,10,15,8,18,0.00,0,,46
2011-12-29,53,36,18,24,17,12,84,53,21,30.28,30.20,30.09,10,10,10,14,4,16,0.00,0,,59
2011-12-30,56,39,21,27,22,18,88,59,30,30.26,30.15,30.03,10,10,10,10,4,10,0.00,0,,88
2011-12-31,47,31,15,26,14,3,88,53,18,30.50,30.22,30.01,10,10,10,28,8,35,0.00,0,,30